sensor_id;sensor_type;location;lat;lon;timestamp;P1;durP1;ratioP1;P2;durP2;ratioP2
57315;SDS011;43156;50.942;18.144;2023-08-30T00:00:55;14.60;;;11.50;;
57315;SDS011;43156;50.942;18.144;2023-08-30T00:11:04;17.40;;;12.70;;
57315;SDS011;43156;50.942;18.144;2023-08-30T00:21:37;12.30;;;10.10;;
57315;SDS011;43156;50.942;18.144;2023-08-30T00:31:47;17.10;;;12.10;;
57315;SDS011;43156;50.942;18.144;2023-08-30T00:41:55;14.90;;;10.20;;
57315;SDS011;43156;50.942;18.144;2023-08-30T00:52:13;20.70;;;11.50;;
57315;SDS011;43156;50.942;18.144;2023-08-30T01:02:11;8.50;;;5.50;;
57315;SDS011;43156;50.942;18.144;2023-08-30T01:12:10;5.30;;;3.70;;
57315;SDS011;43156;50.942;18.144;2023-08-30T01:22:15;11.90;;;8.80;;
57315;SDS011;43156;50.942;18.144;2023-08-30T01:32:23;9.70;;;7.80;;
57315;SDS011;43156;50.942;18.144;2023-08-30T01:42:20;14.60;;;9.30;;
57315;SDS011;43156;50.942;18.144;2023-08-30T01:52:24;20.50;;;8.10;;
57315;SDS011;43156;50.942;18.144;2023-08-30T02:02:33;6.30;;;5.00;;
57315;SDS011;43156;50.942;18.144;2023-08-30T02:12:37;11.00;;;7.90;;
57315;SDS011;43156;50.942;18.144;2023-08-30T02:22:48;5.50;;;4.50;;
57315;SDS011;43156;50.942;18.144;2023-08-30T02:32:43;8.90;;;5.60;;
57315;SDS011;43156;50.942;18.144;2023-08-30T02:42:48;11.80;;;7.80;;
57315;SDS011;43156;50.942;18.144;2023-08-30T02:52:44;14.20;;;9.30;;
57315;SDS011;43156;50.942;18.144;2023-08-30T03:02:41;14.30;;;7.80;;
57315;SDS011;43156;50.942;18.144;2023-08-30T03:12:51;11.30;;;6.70;;
57315;SDS011;43156;50.942;18.144;2023-08-30T03:22:48;7.80;;;7.00;;
57315;SDS011;43156;50.942;18.144;2023-08-30T03:32:49;14.90;;;6.70;;
57315;SDS011;43156;50.942;18.144;2023-08-30T03:42:59;16.10;;;8.30;;
57315;SDS011;43156;50.942;18.144;2023-08-30T03:52:55;9.50;;;7.10;;
57315;SDS011;43156;50.942;18.144;2023-08-30T04:02:48;15.00;;;9.20;;
57315;SDS011;43156;50.942;18.144;2023-08-30T04:12:58;12.80;;;8.30;;
57315;SDS011;43156;50.942;18.144;2023-08-30T04:22:57;9.20;;;6.50;;
57315;SDS011;43156;50.942;18.144;2023-08-30T04:33:02;5.70;;;4.90;;
57315;SDS011;43156;50.942;18.144;2023-08-30T04:53:11;4.00;;;3.10;;
57315;SDS011;43156;50.942;18.144;2023-08-30T05:03:10;0.50;;;0.40;;
57315;SDS011;43156;50.942;18.144;2023-08-30T05:05:47;2.30;;;2.00;;
57315;SDS011;43156;50.942;18.144;2023-08-30T05:15:40;3.20;;;1.90;;
57315;SDS011;43156;50.942;18.144;2023-08-30T05:25:50;2.50;;;2.20;;
57315;SDS011;43156;50.942;18.144;2023-08-30T05:35:43;3.40;;;2.90;;
57315;SDS011;43156;50.942;18.144;2023-08-30T05:45:51;5.80;;;4.30;;
57315;SDS011;43156;50.942;18.144;2023-08-30T05:56:01;3.20;;;2.90;;
57315;SDS011;43156;50.942;18.144;2023-08-30T06:06:07;3.00;;;2.20;;
57315;SDS011;43156;50.942;18.144;2023-08-30T06:16:10;2.80;;;2.60;;
57315;SDS011;43156;50.942;18.144;2023-08-30T06:26:17;4.00;;;3.70;;
57315;SDS011;43156;50.942;18.144;2023-08-30T06:36:17;2.40;;;2.20;;
57315;SDS011;43156;50.942;18.144;2023-08-30T06:46:19;3.70;;;2.40;;
57315;SDS011;43156;50.942;18.144;2023-08-30T06:56:30;2.80;;;2.60;;
57315;SDS011;43156;50.942;18.144;2023-08-30T07:06:29;1.70;;;1.60;;
57315;SDS011;43156;50.942;18.144;2023-08-30T07:09:03;3.10;;;2.30;;
57315;SDS011;43156;50.942;18.144;2023-08-30T07:19:09;2.60;;;2.40;;
57315;SDS011;43156;50.942;18.144;2023-08-30T07:29:14;3.40;;;2.80;;
57315;SDS011;43156;50.942;18.144;2023-08-30T07:39:20;3.10;;;2.80;;
57315;SDS011;43156;50.942;18.144;2023-08-30T07:49:20;2.20;;;1.30;;
57315;SDS011;43156;50.942;18.144;2023-08-30T07:59:27;1.50;;;1.40;;
57315;SDS011;43156;50.942;18.144;2023-08-30T08:09:26;3.70;;;2.10;;
57315;SDS011;43156;50.942;18.144;2023-08-30T08:19:52;2.20;;;1.80;;
57315;SDS011;43156;50.942;18.144;2023-08-30T08:29:52;2.00;;;1.60;;
57315;SDS011;43156;50.942;18.144;2023-08-30T08:40:01;6.30;;;2.20;;
57315;SDS011;43156;50.942;18.144;2023-08-30T08:50:19;2.20;;;1.80;;
57315;SDS011;43156;50.942;18.144;2023-08-30T09:00:23;2.20;;;2.10;;
57315;SDS011;43156;50.942;18.144;2023-08-30T09:10:22;1.30;;;1.20;;
57315;SDS011;43156;50.942;18.144;2023-08-30T09:20:40;1.50;;;1.40;;
57315;SDS011;43156;50.942;18.144;2023-08-30T09:30:38;1.40;;;1.30;;
57315;SDS011;43156;50.942;18.144;2023-08-30T09:40:39;1.00;;;1.00;;
57315;SDS011;43156;50.942;18.144;2023-08-30T09:50:53;0.50;;;0.50;;
57315;SDS011;43156;50.942;18.144;2023-08-30T10:00:57;6.80;;;0.70;;
57315;SDS011;43156;50.942;18.144;2023-08-30T10:11:01;1.40;;;1.30;;
57315;SDS011;43156;50.942;18.144;2023-08-30T10:21:43;0.40;;;0.40;;
57315;SDS011;43156;50.942;18.144;2023-08-30T10:31:45;0.80;;;0.80;;
57315;SDS011;43156;50.942;18.144;2023-08-30T10:41:54;0.70;;;0.70;;
57315;SDS011;43156;50.942;18.144;2023-08-30T10:52:00;0.70;;;0.70;;
57315;SDS011;43156;50.942;18.144;2023-08-30T11:02:18;0.40;;;0.40;;
57315;SDS011;43156;50.942;18.144;2023-08-30T11:12:12;8.00;;;0.50;;
57315;SDS011;43156;50.942;18.144;2023-08-30T11:22:13;0.80;;;0.80;;
57315;SDS011;43156;50.942;18.144;2023-08-30T11:32:31;0.40;;;0.40;;
57315;SDS011;43156;50.942;18.144;2023-08-30T11:42:30;0.60;;;0.60;;
57315;SDS011;43156;50.942;18.144;2023-08-30T11:52:26;1.40;;;1.00;;
57315;SDS011;43156;50.942;18.144;2023-08-30T12:02:30;0.40;;;0.40;;
57315;SDS011;43156;50.942;18.144;2023-08-30T12:12:22;0.40;;;0.40;;
57315;SDS011;43156;50.942;18.144;2023-08-30T12:22:34;0.30;;;0.30;;
57315;SDS011;43156;50.942;18.144;2023-08-30T12:32:49;0.90;;;0.90;;
57315;SDS011;43156;50.942;18.144;2023-08-30T12:42:47;0.50;;;0.50;;
57315;SDS011;43156;50.942;18.144;2023-08-30T12:52:58;0.90;;;0.80;;
57315;SDS011;43156;50.942;18.144;2023-08-30T13:10:34;1.10;;;0.60;;
57315;SDS011;43156;50.942;18.144;2023-08-30T13:20:38;0.70;;;0.70;;
57315;SDS011;43156;50.942;18.144;2023-08-30T13:30:34;2.30;;;0.80;;
57315;SDS011;43156;50.942;18.144;2023-08-30T13:40:39;0.80;;;0.80;;
57315;SDS011;43156;50.942;18.144;2023-08-30T13:51:06;0.90;;;0.90;;
57315;SDS011;43156;50.942;18.144;2023-08-30T14:01:11;1.00;;;1.00;;
57315;SDS011;43156;50.942;18.144;2023-08-30T14:11:26;0.80;;;0.80;;
57315;SDS011;43156;50.942;18.144;2023-08-30T14:21:36;0.30;;;0.30;;
57315;SDS011;43156;50.942;18.144;2023-08-30T14:38:56;0.40;;;0.40;;
57315;SDS011;43156;50.942;18.144;2023-08-30T14:48:52;0.80;;;0.80;;
57315;SDS011;43156;50.942;18.144;2023-08-30T14:58:48;0.40;;;0.40;;
57315;SDS011;43156;50.942;18.144;2023-08-30T15:08:47;1.60;;;1.30;;
57315;SDS011;43156;50.942;18.144;2023-08-30T15:18:51;3.30;;;2.30;;
57315;SDS011;43156;50.942;18.144;2023-08-30T15:28:47;1.60;;;1.50;;
57315;SDS011;43156;50.942;18.144;2023-08-30T15:38:47;1.30;;;1.20;;
57315;SDS011;43156;50.942;18.144;2023-08-30T15:48:43;1.00;;;1.00;;
57315;SDS011;43156;50.942;18.144;2023-08-30T15:59:03;3.30;;;2.70;;
57315;SDS011;43156;50.942;18.144;2023-08-30T16:08:58;5.00;;;1.70;;
57315;SDS011;43156;50.942;18.144;2023-08-30T16:19:03;1.20;;;1.10;;
57315;SDS011;43156;50.942;18.144;2023-08-30T16:28:53;7.30;;;2.30;;
57315;SDS011;43156;50.942;18.144;2023-08-30T16:39:01;3.60;;;0.80;;
57315;SDS011;43156;50.942;18.144;2023-08-30T16:49:04;0.60;;;0.60;;
57315;SDS011;43156;50.942;18.144;2023-08-30T16:59:09;0.30;;;0.30;;
57315;SDS011;43156;50.942;18.144;2023-08-30T17:09:17;1.20;;;1.10;;
57315;SDS011;43156;50.942;18.144;2023-08-30T17:19:20;1.00;;;0.70;;
57315;SDS011;43156;50.942;18.144;2023-08-30T17:21:57;2.40;;;0.90;;
57315;SDS011;43156;50.942;18.144;2023-08-30T17:32:21;3.40;;;0.70;;
57315;SDS011;43156;50.942;18.144;2023-08-30T17:42:20;0.70;;;0.70;;
57315;SDS011;43156;50.942;18.144;2023-08-30T17:52:23;1.00;;;1.00;;
57315;SDS011;43156;50.942;18.144;2023-08-30T18:02:30;0.80;;;0.70;;
57315;SDS011;43156;50.942;18.144;2023-08-30T18:12:53;0.80;;;0.70;;
57315;SDS011;43156;50.942;18.144;2023-08-30T18:23:02;3.30;;;1.10;;
57315;SDS011;43156;50.942;18.144;2023-08-30T18:33:02;5.90;;;0.60;;
57315;SDS011;43156;50.942;18.144;2023-08-30T18:43:09;0.60;;;0.60;;
57315;SDS011;43156;50.942;18.144;2023-08-30T18:53:09;1.20;;;1.10;;
57315;SDS011;43156;50.942;18.144;2023-08-30T19:03:19;1.00;;;0.80;;
57315;SDS011;43156;50.942;18.144;2023-08-30T19:13:25;6.50;;;1.50;;
57315;SDS011;43156;50.942;18.144;2023-08-30T19:23:35;3.50;;;0.90;;
57315;SDS011;43156;50.942;18.144;2023-08-30T19:33:34;1.40;;;1.40;;
57315;SDS011;43156;50.942;18.144;2023-08-30T19:43:35;6.00;;;1.40;;
57315;SDS011;43156;50.942;18.144;2023-08-30T20:01:13;1.60;;;1.50;;
57315;SDS011;43156;50.942;18.144;2023-08-30T20:11:18;1.70;;;1.00;;
57315;SDS011;43156;50.942;18.144;2023-08-30T20:21:12;1.40;;;1.30;;
57315;SDS011;43156;50.942;18.144;2023-08-30T20:31:23;1.80;;;1.50;;
57315;SDS011;43156;50.942;18.144;2023-08-30T20:41:23;2.90;;;1.90;;
57315;SDS011;43156;50.942;18.144;2023-08-30T21:01:21;1.40;;;1.30;;
57315;SDS011;43156;50.942;18.144;2023-08-30T21:11:25;2.10;;;1.10;;
57315;SDS011;43156;50.942;18.144;2023-08-30T21:21:26;1.90;;;1.80;;
57315;SDS011;43156;50.942;18.144;2023-08-30T21:31:36;2.80;;;2.10;;
57315;SDS011;43156;50.942;18.144;2023-08-30T21:41:43;2.00;;;1.80;;
57315;SDS011;43156;50.942;18.144;2023-08-30T21:51:42;1.50;;;1.40;;
57315;SDS011;43156;50.942;18.144;2023-08-30T22:02:07;7.80;;;3.20;;
57315;SDS011;43156;50.942;18.144;2023-08-30T22:12:19;2.40;;;2.20;;
57315;SDS011;43156;50.942;18.144;2023-08-30T22:22:22;1.60;;;1.50;;
57315;SDS011;43156;50.942;18.144;2023-08-30T22:32:13;2.30;;;1.50;;
57315;SDS011;43156;50.942;18.144;2023-08-30T22:42:20;1.90;;;1.70;;
57315;SDS011;43156;50.942;18.144;2023-08-30T22:52:26;2.90;;;1.60;;
57315;SDS011;43156;50.942;18.144;2023-08-30T23:02:31;0.50;;;0.50;;
57315;SDS011;43156;50.942;18.144;2023-08-30T23:12:31;0.60;;;0.60;;
57315;SDS011;43156;50.942;18.144;2023-08-30T23:22:28;2.20;;;1.70;;
57315;SDS011;43156;50.942;18.144;2023-08-30T23:32:34;1.70;;;1.60;;
57315;SDS011;43156;50.942;18.144;2023-08-30T23:42:40;1.70;;;1.60;;
57315;SDS011;43156;50.942;18.144;2023-08-30T23:52:39;1.90;;;1.10;;
